Weather at Camilo Daza International Airport

Public forecast

Using degrees Celsius for public forecast. Weather courtesy of forecast.io.

Current aviation weather report (METAR) for Camilo Daza International Airport

Report is more than 2 hours old.

Retrieved 2021/01/20 03:00 UTC (5 hours ago):

SKCC 200300Z VRB02KT 9999 SCT020 SCT090 26/21 Q1015 RMK A2998

Aviation forecast (TAF) for Camilo Daza International Airport

Retrieved 2021/01/20 06:06 UTC (2 hours ago):

TAF SKCC 200430Z 200606 VRB02KT 9999 SCT020 SCT090 TEMPO 2010/2013 6000 VCFG SCT015 BECMG 2014/2016 36010KT BECMG 2101/2103 VRB02KT TX31/2019Z TN22/2010Z